Time;durP1;ratioP1;P1;durP2;ratioP2;P2;SDS_P1;SDS_P2;PMS_P1;PMS_P2;Temp;Humidity;BMP_temperature;BMP_pressure;BME280_temperature;BME280_humidity;BME280_pressure;Samples;Min_cycle;Max_cycle;Signal;HPM_P1;HPM_P2
2022/04/17 00:01:29;;;;;;;5.82;5.07;;;6.90;99.10;;;;;;5090512;28;20036;-81
2022/04/17 00:03:55;;;;;;;5.88;4.60;;;6.80;98.60;;;;;;5093513;28;20042;-80
2022/04/17 00:06:20;;;;;;;5.63;4.95;;;6.80;98.90;;;;;;5092011;28;20081;-81
2022/04/17 00:08:46;;;;;;;5.95;4.93;;;6.70;99.20;;;;;;5087241;28;20040;-81
2022/04/17 00:11:12;;;;;;;5.25;4.70;;;6.70;99.80;;;;;;5087887;28;20040;-80
2022/04/17 00:13:37;;;;;;;5.55;4.93;;;6.60;99.90;;;;;;5086916;28;20043;-81
2022/04/17 00:16:03;;;;;;;6.45;4.82;;;6.60;99.60;;;;;;5074422;28;20155;-81
2022/04/17 00:18:29;;;;;;;5.57;4.95;;;6.50;99.60;;;;;;5093748;28;20071;-81
2022/04/17 00:20:54;;;;;;;5.32;4.80;;;6.50;99.60;;;;;;5090443;28;20527;-81
2022/04/17 00:23:20;;;;;;;5.00;4.50;;;6.50;99.90;;;;;;5072728;28;20035;-80
2022/04/17 00:25:45;;;;;;;6.75;4.93;;;6.40;99.90;;;;;;5067580;28;20032;-80
2022/04/17 00:28:11;;;;;;;6.70;5.20;;;6.40;99.90;;;;;;5082042;28;20031;-81
2022/04/17 00:30:36;;;;;;;5.88;4.93;;;6.40;99.90;;;;;;5089263;28;20043;-80
2022/04/17 00:33:02;;;;;;;5.93;5.28;;;6.40;99.90;;;;;;5075087;28;20078;-81
2022/04/17 00:35:28;;;;;;;7.80;5.28;;;6.40;99.90;;;;;;5092201;28;20048;-80
2022/04/17 00:37:54;;;;;;;5.65;5.10;;;6.30;99.90;;;;;;5075794;28;20082;-81
2022/04/17 00:40:19;;;;;;;6.15;5.10;;;6.30;99.90;;;;;;5088392;28;20119;-80
2022/04/17 00:42:45;;;;;;;6.57;5.40;;;6.30;99.90;;;;;;5081243;28;20381;-80
2022/04/17 00:45:11;;;;;;;6.75;5.93;;;6.30;99.90;;;;;;5083404;28;20802;-80
2022/04/17 00:47:36;;;;;;;7.38;5.40;;;6.30;99.90;;;;;;5073398;28;20036;-81
2022/04/17 00:50:04;;;;;;;5.38;4.88;;;6.30;99.90;;;;;;5085211;28;20367;-81
2022/04/17 00:52:30;;;;;;;6.60;5.35;;;6.30;99.90;;;;;;5070723;22;20186;-81
2022/04/17 00:54:56;;;;;;;7.70;5.35;;;6.20;99.90;;;;;;5092904;28;20405;-81
2022/04/17 00:57:22;;;;;;;6.15;5.53;;;6.20;99.90;;;;;;5074130;28;20040;-80
2022/04/17 00:59:51;;;;;;;8.13;6.18;;;6.20;99.90;;;;;;5082748;28;20477;-80
2022/04/17 01:02:17;;;;;;;8.00;5.97;;;6.10;99.90;;;;;;5086054;28;20088;-81
2022/04/17 01:04:44;;;;;;;6.25;5.65;;;6.10;99.90;;;;;;5085645;28;20040;-80
2022/04/17 01:07:10;;;;;;;8.20;5.95;;;6.10;99.90;;;;;;5090317;28;20147;-80
2022/04/17 01:09:36;;;;;;;5.57;5.07;;;6.00;99.90;;;;;;5070988;28;20036;-80
2022/04/17 01:12:03;;;;;;;11.00;5.90;;;6.00;99.90;;;;;;5076553;28;20427;-80
2022/04/17 01:14:29;;;;;;;6.25;5.68;;;6.00;99.90;;;;;;5091811;28;20493;-80
2022/04/17 01:16:55;;;;;;;7.97;5.72;;;6.00;99.90;;;;;;5075131;28;20036;-80
2022/04/17 01:19:23;;;;;;;9.48;5.88;;;5.90;99.90;;;;;;5070511;28;20059;-80
2022/04/17 01:21:49;;;;;;;6.43;5.72;;;5.90;99.90;;;;;;5090887;28;20051;-80
2022/04/17 01:27:05;;;;;;;8.30;6.10;;;5.80;99.90;;;;;;5045117;28;20032;-80
2022/04/17 01:29:39;;;;;;;7.25;6.00;;;5.80;99.90;;;;;;5087641;28;20347;-80
2022/04/17 01:32:07;;;;;;;9.40;6.30;;;5.80;99.90;;;;;;5074794;28;20032;-80
2022/04/17 01:34:33;;;;;;;8.40;6.63;;;5.80;99.90;;;;;;5066313;28;20043;-80
2022/04/17 01:37:00;;;;;;;6.38;5.65;;;5.80;99.90;;;;;;5086310;28;20032;-80
2022/04/17 01:39:26;;;;;;;8.55;6.25;;;5.80;99.90;;;;;;5087980;28;20044;-80
2022/04/17 01:41:53;;;;;;;6.72;5.93;;;5.80;99.90;;;;;;5087242;28;20043;-81
2022/04/17 01:44:19;;;;;;;9.13;6.38;;;5.80;99.90;;;;;;5064608;28;20389;-80
2022/04/17 01:46:46;;;;;;;7.28;6.32;;;5.80;99.90;;;;;;5088310;28;20033;-80
2022/04/17 01:49:13;;;;;;;6.82;6.10;;;5.80;99.90;;;;;;5093322;28;20043;-80
2022/04/17 01:51:40;;;;;;;7.28;6.57;;;5.80;99.90;;;;;;5092683;28;20058;-81
2022/04/17 01:54:07;;;;;;;8.52;6.70;;;5.80;99.90;;;;;;5072350;28;20439;-80
2022/04/17 01:56:33;;;;;;;9.05;6.55;;;5.80;99.90;;;;;;5072839;28;20054;-80
2022/04/17 01:58:58;;;;;;;8.35;6.90;;;5.90;99.90;;;;;;5080828;28;20036;-81
2022/04/17 02:01:24;;;;;;;6.53;5.88;;;5.90;99.90;;;;;;5089176;28;20440;-80
2022/04/17 02:03:49;;;;;;;7.05;6.28;;;5.90;99.90;;;;;;5090118;28;20114;-80
2022/04/17 02:06:15;;;;;;;8.50;7.38;;;5.90;99.90;;;;;;5075169;28;20169;-80
2022/04/17 02:08:43;;;;;;;7.65;6.00;;;5.80;99.90;;;;;;5074294;28;20036;-81
2022/04/17 02:11:09;;;;;;;7.15;6.45;;;5.80;99.90;;;;;;5072980;28;20066;-80
2022/04/17 02:13:36;;;;;;;7.90;6.43;;;5.80;99.90;;;;;;5071181;28;20036;-81
2022/04/17 02:16:02;;;;;;;9.13;6.50;;;5.70;99.90;;;;;;5086384;28;20086;-80
2022/04/17 02:18:27;;;;;;;9.20;7.03;;;5.70;99.90;;;;;;5089149;28;20359;-80
2022/04/17 02:20:53;;;;;;;8.98;6.45;;;5.60;99.90;;;;;;5091229;28;20039;-80
2022/04/17 02:23:19;;;;;;;7.13;6.43;;;5.60;99.90;;;;;;5091132;28;20085;-81
2022/04/17 02:25:45;;;;;;;7.97;7.07;;;5.50;99.90;;;;;;5090649;28;20028;-81
2022/04/17 02:28:10;;;;;;;9.13;6.93;;;5.40;99.90;;;;;;5071275;28;20036;-81
2022/04/17 02:30:36;;;;;;;7.80;7.03;;;5.40;99.90;;;;;;5086454;28;20036;-81
2022/04/17 02:33:03;;;;;;;9.57;7.53;;;5.30;99.90;;;;;;5088052;28;20043;-81
2022/04/17 02:35:28;;;;;;;8.02;7.05;;;5.20;99.90;;;;;;5069525;28;20486;-81
2022/04/17 02:37:54;;;;;;;9.48;7.13;;;5.20;99.90;;;;;;5077039;28;20067;-81
2022/04/17 02:40:20;;;;;;;7.90;7.00;;;5.10;99.90;;;;;;5080216;28;20063;-81
2022/04/17 02:42:45;;;;;;;8.07;6.75;;;5.10;99.90;;;;;;5084147;28;20028;-81
2022/04/17 02:45:11;;;;;;;8.70;6.88;;;5.00;99.90;;;;;;5088703;28;20043;-80
2022/04/17 02:47:42;;;;;;;9.00;7.75;;;4.90;99.90;;;;;;5083036;28;20126;-82
2022/04/17 02:50:09;;;;;;;9.40;7.82;;;4.90;99.90;;;;;;5068561;28;20135;-81
2022/04/17 02:52:34;;;;;;;7.95;7.13;;;4.80;99.90;;;;;;5086317;28;20056;-80
2022/04/17 02:55:00;;;;;;;8.52;6.93;;;4.80;99.90;;;;;;5088757;28;20052;-81
2022/04/17 02:57:26;;;;;;;8.23;7.15;;;4.70;99.90;;;;;;5071961;28;20067;-81
2022/04/17 02:59:52;;;;;;;8.68;7.70;;;4.70;99.90;;;;;;5085658;28;20055;-80
2022/04/17 03:07:45;;;;;;;10.52;7.60;;;4.60;99.90;;;;;;5088961;28;20040;-80
2022/04/17 03:10:11;;;;;;;8.43;7.57;;;4.50;99.90;;;;;;5083865;28;20052;-81
2022/04/17 03:12:37;;;;;;;9.63;8.13;;;4.40;99.90;;;;;;5085374;28;20048;-81
2022/04/17 03:15:04;;;;;;;9.27;7.78;;;4.40;99.90;;;;;;5077785;28;20477;-81
2022/04/17 03:17:29;;;;;;;8.07;7.28;;;4.40;99.90;;;;;;5089634;28;20043;-81
2022/04/17 03:19:55;;;;;;;8.45;7.57;;;4.40;99.90;;;;;;5088311;28;20044;-80
2022/04/17 03:22:22;;;;;;;11.13;8.50;;;4.30;99.90;;;;;;5088304;28;20481;-81
2022/04/17 03:24:48;;;;;;;7.97;7.18;;;4.30;99.90;;;;;;5087533;28;20046;-80
2022/04/17 03:27:13;;;;;;;9.05;8.15;;;4.20;99.90;;;;;;5078033;28;20039;-81
2022/04/17 03:29:39;;;;;;;11.20;8.70;;;4.10;99.90;;;;;;5064180;28;20044;-81
2022/04/17 03:32:04;;;;;;;11.70;8.15;;;4.10;99.90;;;;;;5085344;28;20044;-81
2022/04/17 03:34:30;;;;;;;10.07;8.32;;;4.10;99.90;;;;;;5088901;28;20051;-81
2022/04/17 03:36:58;;;;;;;9.68;8.60;;;4.10;99.90;;;;;;5088304;28;20085;-81
2022/04/17 03:39:24;;;;;;;8.68;7.78;;;4.00;99.90;;;;;;5088242;28;20036;-81
2022/04/17 03:41:51;;;;;;;9.27;8.30;;;4.00;99.90;;;;;;5088422;28;20113;-81
2022/04/17 03:44:17;;;;;;;9.32;8.27;;;4.00;99.90;;;;;;5068712;28;20085;-80
2022/04/17 03:46:43;;;;;;;10.00;8.18;;;4.00;99.90;;;;;;5069467;28;20055;-81
2022/04/17 03:49:09;;;;;;;9.13;8.13;;;4.10;99.90;;;;;;5071383;28;20071;-81
2022/04/17 03:51:34;;;;;;;10.25;8.52;;;4.10;99.90;;;;;;5085057;28;20059;-81
2022/04/17 03:54:00;;;;;;;8.90;8.00;;;4.00;99.90;;;;;;5079485;28;20056;-81
2022/04/17 03:56:25;;;;;;;9.07;7.85;;;3.90;99.90;;;;;;5087632;28;20074;-80
2022/04/17 03:58:51;;;;;;;10.32;8.32;;;3.80;99.90;;;;;;5081388;28;20032;-81
2022/04/17 04:01:16;;;;;;;11.85;8.50;;;3.80;99.90;;;;;;5069859;28;20040;-81
2022/04/17 04:03:42;;;;;;;10.13;7.90;;;3.60;99.90;;;;;;5084972;28;20047;-81
2022/04/17 04:06:08;;;;;;;10.60;8.10;;;3.60;99.90;;;;;;5083118;28;20462;-81
2022/04/17 04:08:33;;;;;;;10.75;8.00;;;3.50;99.90;;;;;;5071364;28;20126;-81
2022/04/17 04:10:59;;;;;;;9.75;7.95;;;3.40;99.90;;;;;;5087815;28;20107;-81
2022/04/17 04:13:24;;;;;;;10.23;8.70;;;3.30;99.90;;;;;;5087349;28;20202;-81
2022/04/17 04:15:50;;;;;;;13.75;8.80;;;3.20;99.90;;;;;;5079107;28;20097;-81
2022/04/17 04:18:15;;;;;;;10.43;8.32;;;3.10;99.90;;;;;;5067313;28;20040;-81
2022/04/17 04:20:41;;;;;;;9.68;8.30;;;3.20;99.90;;;;;;5079549;28;20527;-81
2022/04/17 04:23:06;;;;;;;10.88;8.23;;;3.10;99.90;;;;;;5083963;28;20547;-81
2022/04/17 04:25:32;;;;;;;13.32;9.38;;;3.10;99.90;;;;;;5089790;28;20039;-81
2022/04/17 04:30:43;;;;;;;9.00;8.10;;;2.90;99.90;;;;;;5088582;28;20052;-81
2022/04/17 04:33:09;;;;;;;11.55;8.43;;;2.90;99.90;;;;;;5091911;28;20683;-81
2022/04/17 04:35:34;;;;;;;10.07;8.23;;;2.90;99.90;;;;;;5075868;28;20040;-81
2022/04/17 04:38:01;;;;;;;10.65;9.02;;;2.80;99.90;;;;;;5090832;28;20095;-81
2022/04/17 04:40:31;;;;;;;12.85;9.02;;;2.80;99.90;;;;;;5064634;28;20075;-81
2022/04/17 04:43:00;;;;;;;15.40;9.13;;;2.70;99.90;;;;;;5065248;28;20161;-81
2022/04/17 04:48:11;;;;;;;11.27;8.50;;;2.60;99.90;;;;;;5090962;28;20047;-81
2022/04/17 04:50:37;;;;;;;11.32;9.27;;;2.60;99.90;;;;;;5089769;28;20126;-81
2022/04/17 04:53:03;;;;;;;10.00;8.63;;;2.60;99.90;;;;;;5085435;28;20066;-81
2022/04/17 04:55:29;;;;;;;9.75;8.43;;;2.70;99.90;;;;;;5063297;28;20478;-80
2022/04/17 04:57:54;;;;;;;10.73;9.63;;;2.70;99.90;;;;;;5087443;28;20565;-80
2022/04/17 05:00:20;;;;;;;11.05;8.93;;;2.70;99.90;;;;;;5082027;28;20124;-81
2022/04/17 05:02:45;;;;;;;13.10;8.90;;;2.70;99.90;;;;;;5090856;28;20067;-80
2022/04/17 05:05:11;;;;;;;11.70;9.45;;;2.80;99.90;;;;;;5090042;28;20040;-80
2022/04/17 05:07:37;;;;;;;11.65;9.45;;;2.90;99.90;;;;;;5086580;28;20044;-81
2022/04/17 05:10:07;;;;;;;11.13;9.77;;;3.00;99.90;;;;;;5088651;28;20047;-80
2022/04/17 05:12:33;;;;;;;12.05;9.35;;;3.10;99.90;;;;;;5072772;28;20039;-81
2022/04/17 05:14:59;;;;;;;12.60;9.77;;;3.20;99.90;;;;;;5074140;28;20040;-81
2022/04/17 05:17:25;;;;;;;11.13;9.68;;;3.30;99.90;;;;;;5091827;28;20036;-81
2022/04/17 05:19:50;;;;;;;11.07;9.73;;;3.30;99.90;;;;;;5074358;28;20040;-81
2022/04/17 05:22:20;;;;;;;12.00;9.75;;;3.50;99.90;;;;;;5075657;28;20040;-80
2022/04/17 05:24:46;;;;;;;10.45;9.07;;;3.60;99.90;;;;;;5092534;28;20722;-81
2022/04/17 05:27:13;;;;;;;13.07;9.95;;;3.60;99.90;;;;;;5083904;28;20040;-81
2022/04/17 05:29:39;;;;;;;12.80;9.90;;;3.70;99.90;;;;;;5069944;28;20036;-81
2022/04/17 05:32:06;;;;;;;11.43;9.15;;;3.80;99.90;;;;;;5091608;28;20074;-81
2022/04/17 05:34:32;;;;;;;10.65;9.55;;;3.90;99.90;;;;;;5086950;28;20067;-81
2022/04/17 05:36:58;;;;;;;12.40;9.77;;;4.00;99.90;;;;;;5075484;28;20040;-81
2022/04/17 05:39:23;;;;;;;15.05;10.13;;;4.10;99.90;;;;;;5092386;28;20100;-81
2022/04/17 05:41:50;;;;;;;12.75;9.75;;;4.20;99.90;;;;;;5061562;28;20409;-81
2022/04/17 05:44:16;;;;;;;11.98;10.25;;;4.40;99.90;;;;;;5074691;28;20032;-81
2022/04/17 05:46:42;;;;;;;11.35;9.77;;;5.00;99.90;;;;;;5085306;28;20028;-81
2022/04/17 05:49:08;;;;;;;12.68;9.90;;;6.50;99.90;;;;;;5067258;28;20040;-81
2022/04/17 05:51:36;;;;;;;11.77;9.38;;;8.20;99.90;;;;;;5075216;28;20059;-82
2022/04/17 05:54:07;;;;;;;13.75;9.15;;;9.50;99.90;;;;;;5092632;28;20048;-82
2022/04/17 05:56:34;;;;;;;11.40;9.70;;;10.80;97.40;;;;;;5075151;28;20032;-81
2022/04/17 05:59:00;;;;;;;10.20;9.00;;;11.80;95.50;;;;;;5086116;28;20485;-82
2022/04/17 06:01:26;;;;;;;9.80;8.80;;;12.30;88.40;;;;;;5072755;28;20065;-81
2022/04/17 06:03:51;;;;;;;10.55;9.23;;;12.90;79.10;;;;;;5076534;28;20048;-82
2022/04/17 06:06:18;;;;;;;10.95;9.05;;;13.20;80.40;;;;;;5071889;28;20024;-81
2022/04/17 06:08:45;;;;;;;9.85;8.85;;;14.10;81.50;;;;;;5074475;28;20066;-81
2022/04/17 06:11:10;;;;;;;9.98;8.98;;;14.20;70.20;;;;;;5091720;28;20048;-81
2022/04/17 06:13:36;;;;;;;11.02;9.23;;;14.50;72.80;;;;;;5086611;28;20109;-81
2022/04/17 06:16:02;;;;;;;9.82;8.55;;;14.10;63.50;;;;;;5072578;28;20075;-82
2022/04/17 06:18:27;;;;;;;11.25;9.32;;;14.30;68.00;;;;;;5091613;28;20043;-81
2022/04/17 06:20:53;;;;;;;10.25;8.88;;;15.10;66.50;;;;;;5086775;28;20089;-81
2022/04/17 06:23:18;;;;;;;10.20;9.20;;;15.10;63.00;;;;;;5074958;28;20032;-81
2022/04/17 06:25:44;;;;;;;10.02;8.55;;;15.70;60.90;;;;;;5073944;28;20036;-82
2022/04/17 06:28:09;;;;;;;10.38;8.90;;;16.00;63.80;;;;;;5084399;28;20666;-81
2022/04/17 06:30:35;;;;;;;10.68;9.10;;;16.20;65.20;;;;;;5090127;28;20439;-82
2022/04/17 06:33:00;;;;;;;9.77;8.75;;;17.00;64.60;;;;;;5060914;28;20443;-81
2022/04/17 06:35:26;;;;;;;10.57;9.15;;;17.30;56.60;;;;;;5090807;28;20083;-82
2022/04/17 06:37:57;;;;;;;9.43;8.45;;;18.10;59.30;;;;;;5088797;28;20099;-82
2022/04/17 06:40:25;;;;;;;10.32;9.23;;;18.60;59.50;;;;;;5091180;28;20123;-82
2022/04/17 06:42:53;;;;;;;9.23;8.30;;;18.20;54.80;;;;;;5073412;28;20042;-79
2022/04/17 06:45:19;;;;;;;9.93;8.93;;;19.00;57.30;;;;;;5076573;28;20104;-81
2022/04/17 06:47:46;;;;;;;9.65;8.73;;;19.20;57.40;;;;;;5089586;28;20596;-82
2022/04/17 06:50:13;;;;;;;10.75;9.15;;;18.50;52.30;;;;;;5074441;28;20036;-81
2022/04/17 06:52:39;;;;;;;11.93;9.50;;;18.70;54.90;;;;;;5057086;28;20049;-81
2022/04/17 06:55:05;;;;;;;10.23;9.18;;;18.60;47.30;;;;;;5090399;28;20405;-81
2022/04/17 06:57:33;;;;;;;10.10;9.07;;;18.80;53.00;;;;;;5077492;28;20348;-81
2022/04/17 07:00:04;;;;;;;10.73;9.73;;;19.10;50.30;;;;;;5088697;28;20048;-80
2022/04/17 07:02:29;;;;;;;9.57;8.57;;;18.70;51.00;;;;;;5072432;28;20520;-81
2022/04/17 07:04:55;;;;;;;10.35;9.35;;;18.90;49.90;;;;;;5088261;28;20044;-81
2022/04/17 07:07:22;;;;;;;10.55;8.50;;;19.40;52.40;;;;;;5056875;28;20079;-81
2022/04/17 07:09:48;;;;;;;11.23;9.40;;;;;;;;;;5087428;28;20362;-82
2022/04/17 07:12:13;;;;;;;10.38;8.85;;;19.10;49.30;;;;;;5087029;28;20040;-81
2022/04/17 07:14:39;;;;;;;10.25;9.25;;;19.50;52.40;;;;;;5074115;28;20097;-81
2022/04/17 07:17:05;;;;;;;9.07;8.18;;;19.20;47.00;;;;;;5087970;28;20370;-81
2022/04/17 07:19:31;;;;;;;10.18;9.10;;;19.70;49.80;;;;;;5073351;28;20047;-80
2022/04/17 07:21:56;;;;;;;10.23;9.23;;;20.30;50.10;;;;;;5081313;28;20139;-81
2022/04/17 07:24:24;;;;;;;11.68;8.98;;;21.00;49.60;;;;;;5067010;28;20060;-81
2022/04/17 07:26:53;;;;;;;9.82;8.82;;;21.30;46.00;;;;;;5087348;28;20123;-81
2022/04/17 07:29:23;;;;;;;9.30;8.40;;;21.30;48.70;;;;;;5085087;28;20082;-82
2022/04/17 07:31:53;;;;;;;8.88;8.05;;;21.30;45.30;;;;;;5080642;28;20075;-81
2022/04/17 07:34:19;;;;;;;9.73;8.13;;;21.00;46.00;;;;;;5079732;28;20087;-81
2022/04/17 07:36:47;;;;;;;8.70;7.90;;;21.60;49.30;;;;;;5072057;28;20055;-81
2022/04/17 07:39:16;;;;;;;8.98;8.18;;;21.80;45.90;;;;;;5088410;28;20039;-83
2022/04/17 07:41:43;;;;;;;8.27;7.47;;;21.50;44.40;;;;;;5073500;28;20047;-79
2022/04/17 07:44:11;;;;;;;11.38;8.45;;;21.60;46.30;;;;;;5067774;28;20036;-79
2022/04/17 07:46:38;;;;;;;9.75;8.75;;;21.20;46.40;;;;;;5072322;28;20028;-79
2022/04/17 07:49:04;;;;;;;8.65;7.75;;;;;;;;;;5084688;28;20151;-79
2022/04/17 07:51:29;;;;;;;8.05;7.25;;;19.50;45.90;;;;;;5088505;28;20127;-79
2022/04/17 07:53:55;;;;;;;8.65;7.38;;;18.60;51.40;;;;;;5083851;28;20098;-80
2022/04/17 07:56:21;;;;;;;11.45;7.47;;;17.80;50.80;;;;;;5068276;28;20036;-80
2022/04/17 07:58:47;;;;;;;8.50;7.30;;;16.60;48.70;;;;;;5089940;28;20127;-80
2022/04/17 08:01:14;;;;;;;7.88;7.03;;;16.10;55.80;;;;;;5087797;28;20040;-79
2022/04/17 08:06:06;;;;;;;9.70;7.05;;;15.70;60.00;;;;;;5089651;28;20054;-79
2022/04/17 08:08:35;;;;;;;7.05;6.40;;;15.40;57.20;;;;;;5089618;28;20115;-79
2022/04/17 08:11:02;;;;;;;7.65;6.85;;;15.20;61.40;;;;;;5070957;28;20385;-79
2022/04/17 08:13:27;;;;;;;7.82;6.43;;;15.10;63.00;;;;;;5091959;28;20044;-79
2022/04/17 08:15:53;;;;;;;6.82;6.05;;;15.10;65.00;;;;;;5088226;28;20476;-79
2022/04/17 08:18:18;;;;;;;6.75;5.97;;;15.10;66.40;;;;;;5092347;28;20586;-80
2022/04/17 08:20:44;;;;;;;7.63;5.90;;;15.00;60.80;;;;;;5076698;28;20032;-80
2022/04/17 08:23:10;;;;;;;7.57;6.82;;;15.00;67.40;;;;;;5090300;28;20098;-79
2022/04/17 08:25:36;;;;;;;8.40;6.30;;;14.40;57.20;;;;;;5075788;28;20050;-78
2022/04/17 08:28:02;;;;;;;8.13;6.82;;;14.40;67.30;;;;;;5072372;28;20470;-79
2022/04/17 08:30:32;;;;;;;6.97;6.07;;;14.30;62.10;;;;;;5093288;28;20127;-79
2022/04/17 08:33:07;;;;;;;8.75;6.72;;;14.30;65.10;;;;;;5093242;28;20047;-79
2022/04/17 08:35:34;;;;;;;6.75;5.10;;;14.40;70.20;;;;;;5080720;28;20040;-79
2022/04/17 08:38:03;;;;;;;7.65;5.63;;;14.70;72.70;;;;;;5079459;28;20090;-79
2022/04/17 08:40:29;;;;;;;6.65;6.00;;;14.80;72.80;;;;;;5089026;28;20039;-79
2022/04/17 08:42:56;;;;;;;6.72;5.72;;;14.80;71.20;;;;;;5090710;28;20049;-78
2022/04/17 08:45:23;;;;;;;6.22;5.30;;;14.70;69.80;;;;;;5090048;28;20040;-79
2022/04/17 08:47:49;;;;;;;6.25;5.60;;;14.80;72.70;;;;;;5073188;28;20161;-78
2022/04/17 08:50:17;;;;;;;6.28;5.60;;;14.90;71.80;;;;;;5093046;28;20048;-79
2022/04/17 08:52:49;;;;;;;6.43;5.70;;;14.90;73.60;;;;;;5085917;28;20077;-79
2022/04/17 08:55:15;;;;;;;6.40;5.80;;;14.90;67.50;;;;;;5083841;28;20094;-78
2022/04/17 08:57:41;;;;;;;6.32;5.25;;;14.90;73.20;;;;;;5091076;28;20066;-79
2022/04/17 09:00:10;;;;;;;7.93;6.80;;;14.80;61.20;;;;;;5072521;28;20036;-79
2022/04/17 09:02:36;;;;;;;6.35;5.75;;;14.60;53.80;;;;;;5077780;28;20044;-79
2022/04/17 09:05:11;;;;;;;7.22;5.95;;;14.50;60.60;;;;;;5087554;28;20028;-78
2022/04/17 09:07:53;;;;;;;6.18;5.53;;;14.70;67.70;;;;;;5074105;28;20426;-78
2022/04/17 09:10:30;;;;;;;6.22;5.50;;;14.70;57.80;;;;;;5087690;28;20058;-79
2022/04/17 09:13:01;;;;;;;6.78;5.38;;;14.80;63.00;;;;;;5092684;28;20480;-79
2022/04/17 09:15:31;;;;;;;6.85;5.30;;;15.10;73.70;;;;;;5092317;28;20036;-79
2022/04/17 09:17:57;;;;;;;9.65;6.05;;;15.20;69.20;;;;;;5091652;28;20070;-78
2022/04/17 09:20:24;;;;;;;6.22;5.63;;;15.40;73.90;;;;;;5084402;28;20703;-78
2022/04/17 09:22:53;;;;;;;7.38;5.22;;;15.50;73.20;;;;;;5090523;28;20054;-78
2022/04/17 09:25:22;;;;;;;7.13;5.72;;;15.40;65.60;;;;;;5086599;28;20040;-79
2022/04/17 09:27:58;;;;;;;6.30;5.28;;;15.40;56.10;;;;;;5072596;28;20040;-78
2022/04/17 09:30:25;;;;;;;6.32;5.72;;;15.20;59.90;;;;;;5090479;28;20092;-78
2022/04/17 09:32:52;;;;;;;6.50;5.90;;;15.30;62.00;;;;;;5074601;28;20070;-78
2022/04/17 09:35:22;;;;;;;6.28;5.55;;;15.10;55.60;;;;;;5073914;28;20111;-78
2022/04/17 09:37:47;;;;;;;5.35;4.80;;;15.20;63.20;;;;;;5084314;28;20401;-79
2022/04/17 09:40:20;;;;;;;5.60;5.07;;;15.10;59.70;;;;;;5083087;28;20052;-78
2022/04/17 09:42:48;;;;;;;5.93;4.88;;;15.20;58.00;;;;;;5085871;28;20047;-78
2022/04/17 09:45:14;;;;;;;5.93;4.85;;;15.50;66.80;;;;;;5086134;28;20533;-78
2022/04/17 09:47:39;;;;;;;5.80;4.85;;;15.50;59.40;;;;;;5091923;28;20114;-78
2022/04/17 09:50:06;;;;;;;5.03;4.63;;;15.60;63.00;;;;;;5091246;28;20113;-78
2022/04/17 09:52:44;;;;;;;5.97;4.78;;;15.60;63.70;;;;;;5073856;28;20044;-78
2022/04/17 09:55:10;;;;;;;6.15;4.85;;;15.60;59.30;;;;;;5090461;28;20056;-78
2022/04/17 09:57:41;;;;;;;6.03;4.45;;;15.80;69.20;;;;;;5088480;28;20101;-78
2022/04/17 10:00:15;;;;;;;5.18;4.68;;;15.90;64.60;;;;;;5086918;28;20059;-78
2022/04/17 10:02:43;;;;;;;5.70;4.90;;;16.00;64.10;;;;;;5083022;28;20463;-78
2022/04/17 10:05:11;;;;;;;5.45;4.70;;;15.90;51.90;;;;;;5064565;28;20085;-78
2022/04/17 10:07:39;;;;;;;6.68;5.47;;;15.90;58.00;;;;;;5089236;28;20040;-78
2022/04/17 10:10:05;;;;;;;6.55;5.30;;;15.90;60.00;;;;;;5089893;28;20134;-78
2022/04/17 10:12:34;;;;;;;5.55;5.05;;;16.00;60.50;;;;;;5089969;28;20046;-77
2022/04/17 10:15:04;;;;;;;16.80;5.65;;;16.10;62.70;;;;;;5090950;28;20047;-77
2022/04/17 10:17:30;;;;;;;5.45;4.80;;;16.10;60.80;;;;;;5089208;28;20032;-78
2022/04/17 10:20:06;;;;;;;5.93;4.97;;;16.20;61.10;;;;;;5090301;28;20365;-79
2022/04/17 10:22:34;;;;;;;5.63;4.53;;;16.20;54.00;;;;;;5077840;28;20123;-78
2022/04/17 10:25:02;;;;;;;4.78;3.97;;;16.20;56.60;;;;;;5075936;28;20051;-78
2022/04/17 10:27:50;;;;;;;7.18;4.70;;;16.30;62.70;;;;;;5086536;28;20036;-78
2022/04/17 10:30:20;;;;;;;5.82;5.13;;;16.50;63.30;;;;;;5082548;28;20040;-78
2022/04/17 10:33:08;;;;;;;6.65;4.38;;;16.00;45.90;;;;;;5086527;28;20373;-78
2022/04/17 10:36:09;;;;;;;5.65;4.85;;;16.30;53.40;;;;;;5068513;28;20064;-79
2022/04/17 10:39:13;;;;;;;8.05;4.15;;;16.20;52.70;;;;;;5077120;28;20044;-79
2022/04/17 10:41:41;;;;;;;5.68;4.82;;;16.30;50.30;;;;;;5076595;28;20052;-79
2022/04/17 10:44:10;;;;;;;8.27;6.00;;;16.30;56.70;;;;;;5088257;28;20127;-79
2022/04/17 10:46:54;;;;;;;5.55;4.88;;;16.60;60.50;;;;;;5090487;28;20027;-79
2022/04/17 10:49:22;;;;;;;5.65;5.07;;;16.70;60.70;;;;;;5084249;28;20466;-79
2022/04/17 10:51:56;;;;;;;6.43;4.93;;;16.80;52.90;;;;;;5073648;28;20690;-78
2022/04/17 10:54:22;;;;;;;6.97;4.80;;;16.60;57.60;;;;;;5090548;28;20130;-78
2022/04/17 10:56:54;;;;;;;7.65;4.90;;;16.70;60.80;;;;;;5090407;28;20040;-79
2022/04/17 10:59:27;;;;;;;7.68;5.05;;;16.80;57.10;;;;;;5090160;28;20047;-78
2022/04/17 11:02:04;;;;;;;7.25;4.43;;;16.80;47.70;;;;;;5088481;28;20391;-78
2022/04/17 11:04:38;;;;;;;7.13;5.00;;;16.80;53.10;;;;;;5090242;28;20056;-79
2022/04/17 11:07:04;;;;;;;5.82;5.05;;;16.80;49.50;;;;;;5087284;28;20036;-79
2022/04/17 11:09:30;;;;;;;6.03;5.00;;;16.70;51.40;;;;;;5090206;28;20032;-79
2022/04/17 11:12:17;;;;;;;4.90;4.40;;;16.70;47.50;;;;;;5088343;28;20055;-79
2022/04/17 11:15:00;;;;;;;5.22;4.22;;;16.70;53.30;;;;;;5069926;28;20041;-79
2022/04/17 11:17:27;;;;;;;5.38;4.60;;;16.80;57.80;;;;;;5089525;28;20047;-78
2022/04/17 11:19:56;;;;;;;6.47;5.55;;;16.70;48.80;;;;;;5090038;28;20039;-79
2022/04/17 11:22:27;;;;;;;7.65;5.10;;;16.50;47.40;;;;;;5069564;28;20045;-79
2022/04/17 11:24:57;;;;;;;4.57;3.92;;;16.40;47.30;;;;;;5089662;28;20036;-78
2022/04/17 11:27:31;;;;;;;5.40;4.45;;;16.60;52.20;;;;;;5089888;28;20051;-79
2022/04/17 11:30:01;;;;;;;5.45;4.63;;;16.80;56.60;;;;;;5063911;28;20110;-79
2022/04/17 11:32:29;;;;;;;8.75;4.80;;;16.90;55.30;;;;;;5089160;28;20047;-79
2022/04/17 11:35:02;;;;;;;6.30;4.32;;;17.00;48.90;;;;;;5072826;28;20548;-79
2022/04/17 11:37:29;;;;;;;4.82;4.15;;;17.20;55.90;;;;;;5089675;28;20040;-79
2022/04/17 11:40:07;;;;;;;5.63;4.50;;;17.10;47.70;;;;;;5089996;28;20035;-78
2022/04/17 11:42:43;;;;;;;3.97;3.60;;;17.20;51.10;;;;;;5087756;28;20044;-79
2022/04/17 11:45:11;;;;;;;8.05;4.20;;;17.30;55.20;;;;;;5072290;28;20081;-79
2022/04/17 11:47:41;;;;;;;5.20;4.60;;;17.30;46.30;;;;;;5055286;28;20040;-79
2022/04/17 11:50:11;;;;;;;5.97;4.85;;;17.30;46.60;;;;;;5066423;28;20592;-79
2022/04/17 11:52:38;;;;;;;4.30;3.92;;;17.10;45.50;;;;;;5069235;28;20067;-79
2022/04/17 11:55:07;;;;;;;4.75;4.20;;;17.10;53.90;;;;;;5071745;28;20040;-79
2022/04/17 11:57:33;;;;;;;4.35;3.95;;;17.30;54.40;;;;;;5068956;28;20489;-79
2022/04/17 12:00:00;;;;;;;5.20;4.68;;;17.50;56.70;;;;;;5083845;28;20487;-79
2022/04/17 12:02:28;;;;;;;5.68;4.88;;;17.40;48.70;;;;;;5083536;28;20055;-79
2022/04/17 12:04:56;;;;;;;6.43;4.38;;;17.30;48.40;;;;;;5080735;28;20076;-78
2022/04/17 12:07:26;;;;;;;4.30;3.90;;;17.30;46.20;;;;;;5070421;28;20040;-79
2022/04/17 12:10:13;;;;;;;5.05;4.55;;;17.30;51.10;;;;;;5087884;28;20044;-79
2022/04/17 12:12:41;;;;;;;5.57;4.85;;;17.50;57.00;;;;;;5083265;28;20040;-79
2022/04/17 12:15:10;;;;;;;6.30;4.38;;;17.50;48.50;;;;;;5067445;28;20097;-78
2022/04/17 12:17:35;;;;;;;5.18;4.68;;;17.50;54.30;;;;;;5089465;28;20046;-79
2022/04/17 12:20:07;;;;;;;5.90;5.13;;;17.50;47.50;;;;;;5089084;28;20127;-79
2022/04/17 12:22:33;;;;;;;6.72;4.40;;;17.50;44.80;;;;;;5088876;28;20048;-80
2022/04/17 12:24:59;;;;;;;4.82;4.32;;;17.50;50.80;;;;;;5068261;28;20043;-80
2022/04/17 12:27:24;;;;;;;5.00;4.50;;;17.50;50.30;;;;;;5077249;28;20036;-80
2022/04/17 12:29:52;;;;;;;6.03;4.53;;;17.50;50.70;;;;;;5071104;28;20047;-79
2022/04/17 12:32:21;;;;;;;6.78;4.50;;;17.60;51.80;;;;;;5070795;28;20063;-79
2022/04/17 12:35:00;;;;;;;6.63;5.50;;;17.60;44.50;;;;;;5087221;28;20036;-79
2022/04/17 12:37:28;;;;;;;6.25;4.50;;;17.60;50.20;;;;;;5087066;28;20052;-79
2022/04/17 12:40:14;;;;;;;6.32;4.35;;;17.80;54.60;;;;;;5072419;28;20040;-79
2022/04/17 12:42:40;;;;;;;4.72;4.22;;;17.70;45.60;;;;;;5086078;28;20048;-80
2022/04/17 12:45:07;;;;;;;4.47;4.07;;;17.60;41.90;;;;;;5088364;28;20032;-79
2022/04/17 12:47:36;;;;;;;5.28;3.97;;;17.60;47.40;;;;;;5063152;28;20038;-79
2022/04/17 12:50:03;;;;;;;4.05;3.65;;;17.60;51.40;;;;;;5089179;28;20111;-80
2022/04/17 12:52:29;;;;;;;4.63;3.95;;;17.80;54.70;;;;;;5090485;28;20063;-79
2022/04/17 12:54:56;;;;;;;4.72;4.32;;;17.70;48.40;;;;;;5088791;28;20040;-80
2022/04/17 12:57:22;;;;;;;4.75;4.20;;;17.90;44.80;;;;;;5091755;28;20071;-80
2022/04/17 12:59:52;;;;;;;4.30;3.85;;;17.90;52.80;;;;;;5091345;28;20529;-80
2022/04/17 13:02:22;;;;;;;4.45;3.92;;;18.10;46.00;;;;;;5073861;28;20036;-80
2022/04/17 13:04:51;;;;;;;4.82;4.10;;;18.10;49.10;;;;;;5089016;28;20522;-79
2022/04/17 13:07:17;;;;;;;5.10;4.40;;;18.10;51.70;;;;;;5076895;22;20057;-80
2022/04/17 13:09:52;;;;;;;11.88;4.85;;;18.00;48.10;;;;;;5034678;28;20067;-80